Fort Nelson Airport, British Columbia

Past 24 Hour Conditions

This table is a summary of hourly weather conditions for the past 24 hours. This summary includes the following parameters: temperature, humidity, dew point, wind speed and direction, air pressure, visibility and/or wind chill and humidex.
Date / Time
(PDT)
Conditions Temp (°F) Humidity (%) Dew Point (°F) Wind (mph) Pressure (inches) Visibility (miles)
30 July 2014
22:00 Partly Cloudy 60 71 51 WNW 5 30.1 20
21:00 Partly Cloudy 69 40 44 WNW 3 30.1 30
20:00 Mainly Sunny 72 36 44 NW 8 30.1 30
19:00 Partly Cloudy 73 36 44 NNW 11 30.1 30
18:00 Mainly Sunny 74   36 46 NNW 9 30.1 30
17:00 Partly Cloudy 72 37 45 N 11 30.1 30
16:00 Mainly Sunny 74   37 47 NNW 7 30.1 30
15:00 Partly Cloudy 74   37 46 NNW 11 30.1 20
14:00 Partly Cloudy 71 39 45 WNW 7 gust 19 30.1 30
13:00 Partly Cloudy 72 39 46 W 7 30.1 30
12:00 Mostly Cloudy 69 48 49 N 2 30.1 30
11:00 Mostly Cloudy 68 49 48 NW 7 gust 18 30.1 30
10:00 Mostly Cloudy 66 50 48 NW 9 gust 19 30.1 30
9:00 Mostly Cloudy 65 54 48 WNW 9 30.0 30
8:00 Mostly Cloudy 66 57 50 WNW 10 30.0 30
7:00 Mostly Cloudy 64 62 51 NW 7 30.0 30
6:00 Mostly Cloudy 63 65 51 WNW 5 30.0 20
5:00 Mostly Cloudy 60 78 53 SW 3 30.0 20
4:00 Mostly Cloudy 59   84 54 WSW 4 30.0 15
3:00 Mostly Cloudy 64 70 54 W 9 29.9 15
2:00 Partly Cloudy 63 84 58 SW 3 29.9 15
1:00 Mostly Cloudy 67 74 59 W 9 29.9 15
00:00 Mostly Cloudy 60 92 58 WSW 4 29.9 15
29 July 2014
23:00 Mostly Cloudy 64 89 60 NW 3 29.9 15
22:00 Partly Cloudy 66 86 62 calm 29.8 20
N/A
Not available
 ↑ 
Highest temperature
 ↓ 
Lowest temperature

If you require additional historical weather information, please visit Climate Data Online.